Tuesday, October 23, 2018, 9:32 PM EDT
Back to Local

KFOK, The Gabreski Airport

Location: East Quogue, NY, United States Lat: 40.85
Local Time: 9:32 PM EDT ( 1:32 GMT) Lon: -72.617
Time Zone: US/Eastern Elev: 65 ft

Show me the last for .
Show Decoded

2018-10-23 20:53 METAR KFOK 240053Z 29005KT 10SM FEW100 09/07 A2996 RMK AO2 RAE02 SLP146 LTG S
                 P0000 T00940067 $ =
2018-10-23 20:24 METAR KFOK 240024Z 30008KT 10SM FEW075 BKN090 11/07 A2995 RMK AO2 LTG DSNT E-S
                 RAE02 LTG E P0000 T01060072 $ =
2018-10-23 20:02 METAR KFOK 240002Z 32006KT 10SM VCTS FEW050 BKN070 BKN095 11/07 A2995 RMK AO2
                 LTG DSNT ALQDS RAE02 P0000 T01060072 $ =
2018-10-23 19:53 METAR KFOK 232353Z 33007KT 7SM TSRA FEW031 BKN050 OVC085 11/07 A2995 RMK AO2 PK
                 WND 29031/2335 WSHFT 2323 LTG DSNT NE AND E AND SW RAB20 TSB41 SLP141 LTG ALL
                 QUADS P0003 60003 T01060072 10167 20083 53005 $ =
2018-10-23 19:37 METAR KFOK 232337Z 31017G31KT 10SM VCTS -RA FEW032 BKN070 OVC085 13/08 A2994 RMK
                 AO2 PK WND 29031/2335 WSHFT 2323 RAB20 PRESRR LTG N MVG E P0000 T01330083 $ =
2018-10-23 18:53 METAR KFOK 232253Z 00000KT 10SM BKN110 09/06 A2992 RMK AO2 LTG DSNT NW SLP133
                 T00890061 $ =
2018-10-23 17:53 METAR KFOK 232153Z 00000KT 10SM CLR 13/08 A2993 RMK AO2 SLP134 T01330078 $ =
2018-10-23 16:53 METAR KFOK 232053Z 23011G15KT 10SM CLR 15/08 A2993 RMK AO2 SLP135 T01500078
                 56014 $ =
2018-10-23 15:53 METAR KFOK 231953Z 22009G19KT 10SM CLR 16/08 A2993 RMK AO2 SLP136 T01610078 $ =
2018-10-23 14:53 METAR KFOK 231853Z 22011G16KT 10SM SCT075 16/09 A2995 RMK AO2 SLP142 T01610094 $
                 =
2018-10-23 13:53 METAR KFOK 231753Z 23013G19KT 10SM FEW085 17/10 A2997 RMK AO2 SLP149 T01670100
                 10178 20078 56034 $ =
2018-10-23 12:53 METAR KFOK 231653Z 21012G19KT 10SM FEW031 BKN090 17/09 A3000 RMK AO2 SLPNO
                 T01720094 $ =
2018-10-23 11:53 METAR KFOK 231553Z 18008KT 10SM SCT030 BKN034 OVC065 16/09 A3004 RMK AO2 SLP173
                 T01560089 $ =
2018-10-23 10:53 METAR KFOK 231453Z 19008KT 10SM FEW031 BKN047 OVC095 15/08 A3007 RMK AO2 SLP183
                 T01500078 58014 $ =
2018-10-23 09:53 METAR KFOK 231353Z 18006KT 10SM FEW042 OVC090 14/07 A3008 RMK AO2 SLP187
                 T01440072 $ =
2018-10-23 08:53 METAR KFOK 231253Z 18004KT 10SM OVC085 12/07 A3010 RMK AO2 SLPNO T01170072 $ =
2018-10-23 07:53 METAR KFOK 231153Z 15003KT 10SM OVC085 08/06 A3011 RMK AO2 SLPNO T00780056 10078
                 20028 $ =
2018-10-23 06:53 METAR KFOK 231053Z AUTO 00000KT 10SM OVC085 07/05 A3011 RMK AO2 SLPNO T00670050
                 $ =
2018-10-23 05:53 METAR KFOK 230953Z AUTO 00000KT 10SM BKN085 OVC100 07/05 A3013 RMK AO2 SLP204
                 T00720050 $ =
2018-10-23 04:53 METAR KFOK 230853Z AUTO 00000KT 10SM OVC100 05/03 A3015 RMK AO2 SLP209 T00500033
                 57014 $ =
2018-10-23 03:53 METAR KFOK 230753Z AUTO 00000KT 10SM BKN075 OVC090 05/03 A3016 RMK AO2 SLP212
                 T00500033 $ =
2018-10-23 02:53 METAR KFOK 230653Z AUTO 00000KT 10SM OVC080 04/03 A3018 RMK AO2 SLP219 T00440028
                 $ =
2018-10-23 01:53 METAR KFOK 230553Z AUTO 00000KT 10SM OVC080 03/01 A3019 RMK AO2 SLP223 T00280011
                 10106 20006 $ =
2018-10-22 22:53 METAR KFOK 230253Z COR 00000KT 10SM CLR 02/00 A3020 =
2018-10-22 21:53 METAR KFOK 230153Z COR 00000KT 10SM FEW039 03/01 A3020 =

Support USWX by starting your Amazon purchase here.